Time;durP1;ratioP1;P1;durP2;ratioP2;P2;SDS_P1;SDS_P2;PMS_P1;PMS_P2;Temp;Humidity;BMP_temperature;BMP_pressure;BME280_temperature;BME280_humidity;BME280_pressure;Samples;Min_cycle;Max_cycle;Signal;HPM_P1;HPM_P2
2022/07/02 00:00:35;;;;;;;;;;;;;;;20.62;100.00;100009.88;3056368;19;937;-52
2022/07/02 00:01:37;;;;;;;;;;;;;;;20.67;100.00;100029.19;3056683;19;900;-52
2022/07/02 00:02:43;;;;;;;;;;;;;;;20.72;100.00;100032.25;3055794;19;944;-52
2022/07/02 00:03:49;;;;;;;;;;;;;;;20.78;100.00;100039.69;3055549;19;1249;-52
2022/07/02 00:05:00;;;;;;;;;;;;;;;20.79;100.00;100034.09;3055915;19;964;-52
2022/07/02 00:06:03;;;;;;;;;;;;;;;20.85;100.00;100040.72;3055625;19;933;-53
2022/07/02 00:07:07;;;;;;;;;;;;;;;20.89;100.00;100041.22;3056645;19;1027;-53
2022/07/02 00:08:09;;;;;;;;;;;;;;;20.93;100.00;100048.81;3055620;19;873;-52
2022/07/02 00:09:13;;;;;;;;;;;;;;;20.91;100.00;100052.72;3055648;19;1320;-53
2022/07/02 00:10:18;;;;;;;;;;;;;;;20.91;100.00;100059.00;3055378;19;1718;-53
2022/07/02 00:11:20;;;;;;;;;;;;;;;20.91;100.00;100058.16;3055826;19;1047;-54
2022/07/02 00:12:25;;;;;;;;;;;;;;;20.92;100.00;100055.25;3055327;19;961;-55
2022/07/02 00:13:27;;;;;;;;;;;;;;;20.89;100.00;100050.16;3056026;19;952;-54
2022/07/02 00:14:31;;;;;;;;;;;;;;;20.88;100.00;100042.22;3055247;19;1826;-55
2022/07/02 00:15:34;;;;;;;;;;;;;;;20.88;100.00;100036.81;3056535;19;1583;-53
2022/07/02 00:16:38;;;;;;;;;;;;;;;20.87;100.00;100024.25;3055738;19;917;-53
2022/07/02 00:17:40;;;;;;;;;;;;;;;20.86;100.00;100018.00;3057113;19;953;-53
2022/07/02 00:18:44;;;;;;;;;;;;;;;20.87;100.00;100019.69;3057848;19;1434;-54
2022/07/02 00:19:46;;;;;;;;;;;;;;;20.84;100.00;100004.59;3056731;19;882;-54
2022/07/02 00:20:51;;;;;;;;;;;;;;;20.85;100.00;100003.59;3056384;19;985;-54
2022/07/02 00:21:53;;;;;;;;;;;;;;;20.87;100.00;100003.41;3056612;19;957;-54
2022/07/02 00:22:57;;;;;;;;;;;;;;;20.89;100.00;99995.91;3056514;19;892;-54
2022/07/02 00:23:59;;;;;;;;;;;;;;;20.92;100.00;99997.44;3056760;19;952;-53
2022/07/02 00:25:04;;;;;;;;;;;;;;;20.94;100.00;99993.56;3056753;19;880;-53
2022/07/02 00:26:17;;;;;;;;;;;;;;;20.96;100.00;99986.09;3055836;19;1411;-55
2022/07/02 00:27:19;;;;;;;;;;;;;;;20.96;100.00;99974.41;3055913;19;1131;-55
2022/07/02 00:28:25;;;;;;;;;;;;;;;21.04;100.00;99975.22;3056412;19;1279;-54
2022/07/02 00:29:41;;;;;;;;;;;;;;;21.08;100.00;99962.16;3055096;19;977;-53
2022/07/02 00:30:46;;;;;;;;;;;;;;;21.11;100.00;99956.38;3056016;19;893;-54
2022/07/02 00:31:51;;;;;;;;;;;;;;;21.14;100.00;99951.44;3056275;19;955;-53
2022/07/02 00:32:55;;;;;;;;;;;;;;;21.15;100.00;99946.84;3056438;19;1123;-55
2022/07/02 00:33:57;;;;;;;;;;;;;;;21.14;100.00;99935.16;3056253;19;921;-55
2022/07/02 00:35:04;;;;;;;;;;;;;;;21.17;100.00;99932.09;3055009;19;1861;-53
2022/07/02 00:36:06;;;;;;;;;;;;;;;21.18;100.00;99922.09;3055800;19;877;-54
2022/07/02 00:37:11;;;;;;;;;;;;;;;21.18;100.00;99928.38;3055166;19;1107;-54
2022/07/02 00:38:12;;;;;;;;;;;;;;;21.20;100.00;99929.06;3056083;19;917;-54
2022/07/02 00:39:17;;;;;;;;;;;;;;;21.22;100.00;99922.63;3057215;19;1986;-54
2022/07/02 00:40:19;;;;;;;;;;;;;;;21.22;100.00;99917.19;3056875;19;2338;-54
2022/07/02 00:41:23;;;;;;;;;;;;;;;21.24;100.00;99912.44;3057835;19;1887;-54
2022/07/02 00:42:25;;;;;;;;;;;;;;;21.24;100.00;99904.28;3056193;19;900;-54
2022/07/02 00:43:30;;;;;;;;;;;;;;;21.25;100.00;99887.00;3055758;19;866;-59
2022/07/02 00:44:31;;;;;;;;;;;;;;;21.24;100.00;99879.88;3058177;19;957;-54
2022/07/02 00:45:36;;;;;;;;;;;;;;;21.26;100.00;99872.38;3056397;19;945;-54
2022/07/02 00:46:38;;;;;;;;;;;;;;;21.26;100.00;99877.78;3056280;19;999;-54
2022/07/02 00:47:43;;;;;;;;;;;;;;;21.22;100.00;99868.34;3055637;19;892;-53
2022/07/02 00:48:45;;;;;;;;;;;;;;;21.25;100.00;99876.13;3055356;19;858;-54
2022/07/02 00:49:49;;;;;;;;;;;;;;;21.26;100.00;99888.66;3055415;19;882;-54
2022/07/02 00:50:51;;;;;;;;;;;;;;;21.27;100.00;99896.63;3056069;19;933;-54
2022/07/02 00:51:55;;;;;;;;;;;;;;;21.29;100.00;99893.72;3056106;19;856;-54
2022/07/02 00:53:00;;;;;;;;;;;;;;;21.29;100.00;99886.44;3056327;19;877;-54
2022/07/02 00:54:02;;;;;;;;;;;;;;;21.29;100.00;99880.16;3055780;19;792;-55
2022/07/02 00:55:07;;;;;;;;;;;;;;;21.29;100.00;99885.59;3055743;19;1850;-54
2022/07/02 00:56:08;;;;;;;;;;;;;;;21.28;100.00;99870.31;3055851;19;1032;-54
2022/07/02 00:57:13;;;;;;;;;;;;;;;21.29;100.00;99872.03;3055215;19;1023;-55
2022/07/02 00:58:15;;;;;;;;;;;;;;;21.27;100.00;99874.06;3056784;19;885;-54
2022/07/02 00:59:20;;;;;;;;;;;;;;;21.25;100.00;99873.41;3058690;19;953;-54
2022/07/02 01:00:22;;;;;;;;;;;;;;;21.26;100.00;99873.22;3058419;19;901;-55
2022/07/02 01:01:26;;;;;;;;;;;;;;;21.29;100.00;99883.72;3059225;19;961;-54
2022/07/02 01:02:28;;;;;;;;;;;;;;;21.34;100.00;99891.34;3059094;19;934;-54
2022/07/02 01:03:33;;;;;;;;;;;;;;;21.36;100.00;99892.00;3059532;19;883;-54
2022/07/02 01:04:35;;;;;;;;;;;;;;;21.38;100.00;99893.50;3059031;19;894;-53
2022/07/02 01:05:39;;;;;;;;;;;;;;;21.42;100.00;99896.72;3059449;19;877;-54
2022/07/02 01:06:42;;;;;;;;;;;;;;;21.43;100.00;99892.97;3059027;19;948;-54
2022/07/02 01:10:16;;;;;;;;;;;;;;;21.45;100.00;99890.94;3058815;19;1014;-53
2022/07/02 01:10:29;;;;;;;;;;;;;;;21.52;100.00;99889.19;3058899;19;810;-53
2022/07/02 01:11:32;;;;;;;;;;;;;;;21.54;100.00;99893.41;3058936;19;1656;-53
2022/07/02 01:12:36;;;;;;;;;;;;;;;21.57;100.00;99903.06;3058877;19;957;-53
2022/07/02 01:13:38;;;;;;;;;;;;;;;21.59;100.00;99906.47;3058977;19;920;-53
2022/07/02 01:14:43;;;;;;;;;;;;;;;21.61;100.00;99909.84;3058755;19;1852;-53
2022/07/02 01:15:45;;;;;;;;;;;;;;;21.63;100.00;99910.50;3059313;19;983;-53
2022/07/02 01:16:49;;;;;;;;;;;;;;;21.67;100.00;99914.53;3058801;19;900;-53
2022/07/02 01:17:51;;;;;;;;;;;;;;;21.68;100.00;99913.53;3059175;19;960;-53
2022/07/02 01:18:56;;;;;;;;;;;;;;;21.69;100.00;99907.06;3058460;19;899;-53
2022/07/02 01:19:58;;;;;;;;;;;;;;;21.68;100.00;99907.25;3059048;19;987;-53
2022/07/02 01:21:02;;;;;;;;;;;;;;;21.66;100.00;99903.84;3058731;19;869;-52
2022/07/02 01:22:13;;;;;;;;;;;;;;;21.62;100.00;99889.78;3059004;19;920;-52
2022/07/02 01:23:17;;;;;;;;;;;;;;;21.61;100.00;99892.72;3058514;19;1357;-52
2022/07/02 01:24:25;;;;;;;;;;;;;;;21.58;100.00;99877.63;3058163;19;862;-52
2022/07/02 01:25:29;;;;;;;;;;;;;;;21.52;100.00;99884.59;3058169;19;956;-52
2022/07/02 01:26:31;;;;;;;;;;;;;;;21.48;100.00;99893.31;3059081;19;889;-52
2022/07/02 01:27:36;;;;;;;;;;;;;;;21.49;100.00;99895.00;3059522;19;1008;-52
2022/07/02 01:28:37;;;;;;;;;;;;;;;21.49;100.00;99905.84;3058593;19;1184;-51
2022/07/02 01:29:42;;;;;;;;;;;;;;;21.48;100.00;99906.88;3058647;19;1040;-52
2022/07/02 01:30:46;;;;;;;;;;;;;;;21.43;100.00;99917.41;3058957;19;981;-51
2022/07/02 01:31:48;;;;;;;;;;;;;;;21.34;100.00;99913.06;3058817;19;742;-52
2022/07/02 01:32:53;;;;;;;;;;;;;;;21.41;100.00;99922.16;3057699;19;949;-51
2022/07/02 01:33:55;;;;;;;;;;;;;;;21.42;100.00;99922.00;3057653;19;1012;-51
2022/07/02 01:35:08;;;;;;;;;;;;;;;21.43;100.00;99917.41;3058604;19;1856;-51
2022/07/02 01:36:10;;;;;;;;;;;;;;;21.44;100.00;99913.69;3058662;19;861;-51
2022/07/02 01:37:19;;;;;;;;;;;;;;;21.45;100.00;99920.81;3058594;19;1681;-51
2022/07/02 01:38:23;;;;;;;;;;;;;;;21.45;100.00;99912.66;3058849;19;901;-51
2022/07/02 01:39:25;;;;;;;;;;;;;;;21.44;100.00;99913.69;3058573;19;1052;-52
2022/07/02 01:40:29;;;;;;;;;;;;;;;21.44;100.00;99913.69;3058516;19;896;-51
2022/07/02 01:41:41;;;;;;;;;;;;;;;21.44;100.00;99902.81;3058820;19;814;-51
2022/07/02 01:42:45;;;;;;;;;;;;;;;21.42;100.00;99899.44;3058549;19;952;-51
2022/07/02 01:43:47;;;;;;;;;;;;;;;21.40;100.00;99896.03;3057997;19;945;-51
2022/07/02 01:44:52;;;;;;;;;;;;;;;21.41;100.00;99911.31;3058548;19;961;-52
2022/07/02 01:45:54;;;;;;;;;;;;;;;21.40;100.00;99912.31;3058495;19;904;-51
2022/07/02 01:46:58;;;;;;;;;;;;;;;21.37;100.00;99912.72;3058562;19;1135;-50
2022/07/02 01:48:00;;;;;;;;;;;;;;;21.37;100.00;99912.72;3058789;19;915;-51
2022/07/02 01:49:05;;;;;;;;;;;;;;;21.35;100.00;99914.75;3058906;19;928;-51
2022/07/02 01:50:10;;;;;;;;;;;;;;;21.33;100.00;99916.78;3057525;19;895;-51
2022/07/02 01:51:12;;;;;;;;;;;;;;;21.31;100.00;99925.09;3057729;19;1032;-51
2022/07/02 01:52:17;;;;;;;;;;;;;;;21.30;100.00;99911.72;3057530;19;1273;-51
2022/07/02 01:53:19;;;;;;;;;;;;;;;21.28;100.00;99919.19;3057883;19;972;-51
2022/07/02 01:54:24;;;;;;;;;;;;;;;21.27;100.00;99912.06;3058464;19;969;-50
2022/07/02 01:55:26;;;;;;;;;;;;;;;21.25;100.00;99914.13;3058427;19;1864;-50
2022/07/02 01:56:32;;;;;;;;;;;;;;;21.22;100.00;99906.34;3058332;19;941;-51
2022/07/02 01:57:38;;;;;;;;;;;;;;;21.19;100.00;99905.66;3058463;19;651;-51
2022/07/02 01:58:40;;;;;;;;;;;;;;;21.17;100.00;99904.94;3058440;19;912;-51
2022/07/02 01:59:44;;;;;;;;;;;;;;;21.17;100.00;99915.81;3058677;19;956;-51
2022/07/02 02:00:46;;;;;;;;;;;;;;;21.16;100.00;99916.81;3058213;19;945;-52
2022/07/02 02:01:50;;;;;;;;;;;;;;;21.16;100.00;99924.97;3057685;19;878;-51
2022/07/02 02:02:55;;;;;;;;;;;;;;;21.15;100.00;99925.13;3057340;19;857;-50
2022/07/02 02:03:57;;;;;;;;;;;;;;;21.15;100.00;99931.41;3058601;19;928;-51
2022/07/02 02:05:01;;;;;;;;;;;;;;;21.14;100.00;99943.28;3058455;19;928;-51
2022/07/02 02:06:05;;;;;;;;;;;;;;;21.15;100.00;99939.56;3058487;19;1187;-52
2022/07/02 02:07:09;;;;;;;;;;;;;;;21.15;100.00;99947.69;3058230;19;963;-50
2022/07/02 02:08:11;;;;;;;;;;;;;;;21.15;100.00;99946.84;3058385;19;1040;-51
2022/07/02 02:09:16;;;;;;;;;;;;;;;21.13;100.00;99949.72;3057800;19;971;-52
2022/07/02 02:10:18;;;;;;;;;;;;;;;21.14;100.00;99954.13;3056766;19;976;-50
2022/07/02 02:11:22;;;;;;;;;;;;;;;21.14;100.00;99961.44;3057710;19;969;-51
2022/07/02 02:12:24;;;;;;;;;;;;;;;21.14;100.00;99956.84;3058393;19;865;-51
2022/07/02 02:13:28;;;;;;;;;;;;;;;21.12;100.00;99942.63;3058178;19;909;-50
2022/07/02 02:14:30;;;;;;;;;;;;;;;21.13;100.00;99949.72;3058582;19;928;-51
2022/07/02 02:15:35;;;;;;;;;;;;;;;21.13;100.00;99954.34;3057775;19;1856;-52
2022/07/02 02:16:37;;;;;;;;;;;;;;;21.13;100.00;99957.88;3058379;19;964;-51
2022/07/02 02:17:41;;;;;;;;;;;;;;;21.13;100.00;99966.00;3057813;19;1661;-50
2022/07/02 02:18:43;;;;;;;;;;;;;;;21.12;100.00;99975.19;3058282;19;916;-51
2022/07/02 02:19:48;;;;;;;;;;;;;;;21.13;100.00;99971.44;3058019;19;1109;-50
2022/07/02 02:20:50;;;;;;;;;;;;;;;21.13;100.00;99970.63;3058000;19;1032;-50
2022/07/02 02:21:55;;;;;;;;;;;;;;;21.12;100.00;99964.34;3058054;19;960;-50
2022/07/02 02:23:00;;;;;;;;;;;;;;;21.12;100.00;99974.34;3058090;19;913;-51
2022/07/02 02:24:05;;;;;;;;;;;;;;;21.12;100.00;99968.94;3057812;19;1027;-50
2022/07/02 02:25:07;;;;;;;;;;;;;;;21.12;100.00;99961.63;3057686;19;1044;-51
2022/07/02 02:26:11;;;;;;;;;;;;;;;21.12;100.00;99964.34;3057844;19;885;-50
2022/07/02 02:27:13;;;;;;;;;;;;;;;21.13;100.00;99960.59;3057863;19;1035;-50
2022/07/02 02:28:17;;;;;;;;;;;;;;;21.13;100.00;99963.31;3057933;19;1056;-50
2022/07/02 02:29:19;;;;;;;;;;;;;;;21.15;100.00;99961.25;3058111;19;1020;-51
2022/07/02 02:30:24;;;;;;;;;;;;;;;21.16;100.00;99960.25;3058095;19;1016;-51
2022/07/02 02:31:27;;;;;;;;;;;;;;;21.18;100.00;99962.78;3058160;19;890;-50
2022/07/02 02:32:31;;;;;;;;;;;;;;;21.19;100.00;99968.06;3057874;19;1059;-51
2022/07/02 02:33:33;;;;;;;;;;;;;;;21.20;100.00;99966.22;3058024;19;1763;-51
2022/07/02 02:34:38;;;;;;;;;;;;;;;21.12;100.00;99958.91;3057656;19;990;-50
2022/07/02 02:35:40;;;;;;;;;;;;;;;21.21;100.00;99973.31;3058141;19;981;-51
2022/07/02 02:36:45;;;;;;;;;;;;;;;21.23;100.00;99981.31;3056406;19;1873;-50
2022/07/02 02:37:46;;;;;;;;;;;;;;;21.22;100.00;99982.31;3058045;19;932;-51
2022/07/02 02:38:51;;;;;;;;;;;;;;;21.23;100.00;99978.59;3056992;19;1072;-50
2022/07/02 02:39:53;;;;;;;;;;;;;;;21.24;100.00;99980.28;3056653;19;909;-51
2022/07/02 02:40:58;;;;;;;;;;;;;;;21.25;100.00;99992.84;3057494;19;901;-50
2022/07/02 02:42:00;;;;;;;;;;;;;;;21.25;100.00;99981.97;3057870;19;987;-51
2022/07/02 02:43:04;;;;;;;;;;;;;;;21.26;100.00;99986.34;3057606;19;966;-51
2022/07/02 02:44:06;;;;;;;;;;;;;;;21.26;100.00;99992.63;3058208;19;941;-51
2022/07/02 02:45:10;;;;;;;;;;;;;;;21.29;100.00;99986.00;3058109;19;889;-51
2022/07/02 02:46:12;;;;;;;;;;;;;;;21.32;100.00;99991.94;3058187;19;884;-50
2022/07/02 02:47:17;;;;;;;;;;;;;;;21.33;100.00;99987.38;3057756;19;1041;-56
2022/07/02 02:48:19;;;;;;;;;;;;;;;21.37;100.00;99988.72;3058083;19;897;-51
2022/07/02 02:49:23;;;;;;;;;;;;;;;21.38;100.00;99976.81;3057782;19;917;-51
2022/07/02 02:50:25;;;;;;;;;;;;;;;21.41;100.00;99973.75;3057670;19;1319;-51
2022/07/02 02:51:29;;;;;;;;;;;;;;;21.41;100.00;99971.03;3057829;19;929;-50
2022/07/02 02:52:31;;;;;;;;;;;;;;;21.41;100.00;99962.88;3057800;19;865;-50
2022/07/02 02:53:36;;;;;;;;;;;;;;;21.42;100.00;99964.59;3057717;19;1026;-50
2022/07/02 02:54:38;;;;;;;;;;;;;;;21.42;100.00;99968.16;3057466;19;973;-51
2022/07/02 02:55:43;;;;;;;;;;;;;;;21.42;100.00;99965.44;3057713;19;1024;-50
2022/07/02 02:56:45;;;;;;;;;;;;;;;21.41;100.00;99965.59;3056240;19;2125;-50
2022/07/02 02:57:49;;;;;;;;;;;;;;;21.42;100.00;99964.59;3056994;19;969;-51
2022/07/02 02:58:51;;;;;;;;;;;;;;;21.42;100.00;99970.00;3057603;19;952;-50
2022/07/02 02:59:56;;;;;;;;;;;;;;;21.42;100.00;99964.59;3057939;19;909;-51
2022/07/02 03:00:58;;;;;;;;;;;;;;;21.43;100.00;99958.13;3057460;19;1654;-51
2022/07/02 03:02:03;;;;;;;;;;;;;;;21.43;100.00;99955.41;3056986;19;2252;-50
2022/07/02 03:03:04;;;;;;;;;;;;;;;21.41;100.00;99950.16;3056739;19;940;-51
2022/07/02 03:04:09;;;;;;;;;;;;;;;21.30;100.00;99928.84;3058038;19;885;-51
2022/07/02 03:05:11;;;;;;;;;;;;;;;21.39;100.00;99937.78;3057608;19;786;-50
2022/07/02 03:06:15;;;;;;;;;;;;;;;21.38;100.00;99938.81;3057787;19;1057;-53
2022/07/02 03:07:17;;;;;;;;;;;;;;;21.35;100.00;99925.59;3057400;19;1056;-50
2022/07/02 03:08:22;;;;;;;;;;;;;;;21.33;100.00;99927.66;3057578;19;977;-50
2022/07/02 03:09:24;;;;;;;;;;;;;;;21.31;100.00;99929.69;3056911;19;985;-50
2022/07/02 03:10:28;;;;;;;;;;;;;;;21.29;100.00;99940.72;3057428;19;985;-50
2022/07/02 03:11:31;;;;;;;;;;;;;;;21.29;100.00;99948.00;3057595;19;941;-50
2022/07/02 03:12:36;;;;;;;;;;;;;;;21.27;100.00;99947.34;3056726;19;983;-50
2022/07/02 03:13:38;;;;;;;;;;;;;;;21.24;100.00;99945.00;3056639;19;766;-50
2022/07/02 03:14:42;;;;;;;;;;;;;;;21.24;100.00;99955.84;3057686;19;953;-50
2022/07/02 03:15:44;;;;;;;;;;;;;;;21.23;100.00;99960.44;3057283;19;877;-50
2022/07/02 03:16:48;;;;;;;;;;;;;;;21.22;100.00;99974.19;3057093;19;1857;-50
2022/07/02 03:17:50;;;;;;;;;;;;;;;21.23;100.00;99976.72;3057277;19;945;-51
2022/07/02 03:18:55;;;;;;;;;;;;;;;21.24;100.00;99978.41;3058045;19;855;-51
2022/07/02 03:19:56;;;;;;;;;;;;;;;21.25;100.00;99979.25;3057283;19;999;-50
2022/07/02 03:21:01;;;;;;;;;;;;;;;21.22;100.00;99987.75;3056869;19;969;-50
2022/07/02 03:22:03;;;;;;;;;;;;;;;21.19;100.00;99983.50;3057283;19;972;-50
2022/07/02 03:23:07;;;;;;;;;;;;;;;21.16;100.00;99981.94;3057560;19;973;-50
2022/07/02 03:24:10;;;;;;;;;;;;;;;21.14;100.00;99973.13;3057661;19;895;-50
2022/07/02 03:25:14;;;;;;;;;;;;;;;21.12;100.00;99969.78;3056731;19;1145;-50
2022/07/02 03:26:18;;;;;;;;;;;;;;;21.13;100.00;99973.34;3056615;19;1080;-50
2022/07/02 03:27:20;;;;;;;;;;;;;;;21.07;100.00;99966.72;3057419;19;923;-51
2022/07/02 03:28:26;;;;;;;;;;;;;;;21.00;100.00;99959.47;3057486;19;1248;-51
2022/07/02 03:29:28;;;;;;;;;;;;;;;21.03;100.00;99954.53;3057883;19;818;-51
2022/07/02 03:30:32;;;;;;;;;;;;;;;21.01;100.00;99961.97;3057568;19;1391;-50
2022/07/02 03:31:34;;;;;;;;;;;;;;;20.92;100.00;99957.59;3057457;19;984;-50
2022/07/02 03:32:38;;;;;;;;;;;;;;;20.94;100.00;99960.16;3057284;19;1047;-50
2022/07/02 03:33:40;;;;;;;;;;;;;;;20.92;100.00;99946.75;3057410;19;1037;-50
2022/07/02 03:34:45;;;;;;;;;;;;;;;20.91;100.00;99934.22;3057262;19;1014;-50
2022/07/02 03:35:47;;;;;;;;;;;;;;;20.92;100.00;99929.63;3057399;19;964;-51
2022/07/02 03:36:51;;;;;;;;;;;;;;;20.92;100.00;99941.34;3056846;19;1844;-51
2022/07/02 03:37:53;;;;;;;;;;;;;;;20.91;100.00;99945.06;3057090;19;952;-50
2022/07/02 03:38:57;;;;;;;;;;;;;;;20.90;100.00;99958.78;3057324;19;1015;-50
2022/07/02 03:39:59;;;;;;;;;;;;;;;20.89;100.00;99960.66;3057054;19;1287;-50
2022/07/02 03:41:06;;;;;;;;;;;;;;;20.90;100.00;99965.06;3057589;19;822;-50
2022/07/02 03:42:10;;;;;;;;;;;;;;;20.92;100.00;99968.47;3057342;19;913;-50
2022/07/02 03:43:15;;;;;;;;;;;;;;;20.93;100.00;99967.44;3057338;19;1280;-50
2022/07/02 03:44:17;;;;;;;;;;;;;;;20.95;100.00;99976.25;3057443;19;866;-50
2022/07/02 03:45:21;;;;;;;;;;;;;;;20.96;100.00;99977.94;3057264;19;1657;-50
2022/07/02 03:46:23;;;;;;;;;;;;;;;20.98;100.00;99989.47;3057528;19;941;-50
2022/07/02 03:47:27;;;;;;;;;;;;;;;20.99;100.00;99984.91;3057348;19;861;-50
2022/07/02 03:48:30;;;;;;;;;;;;;;;21.01;100.00;100001.88;3056260;19;971;-50
2022/07/02 03:49:34;;;;;;;;;;;;;;;21.00;100.00;100003.72;3056113;19;985;-50
2022/07/02 03:50:38;;;;;;;;;;;;;;;21.00;100.00;100020.00;3057335;19;996;-50
2022/07/02 03:51:42;;;;;;;;;;;;;;;21.01;100.00;100021.66;3057024;19;945;-50
2022/07/02 03:52:44;;;;;;;;;;;;;;;21.04;100.00;100018.63;3056811;19;1041;-50
2022/07/02 03:53:49;;;;;;;;;;;;;;;21.05;100.00;100012.16;3056833;19;1724;-50
2022/07/02 03:54:51;;;;;;;;;;;;;;;21.06;100.00;100019.28;3057267;19;1026;-50
2022/07/02 03:55:55;;;;;;;;;;;;;;;21.04;100.00;100001.50;3056927;19;909;-50
2022/07/02 03:56:57;;;;;;;;;;;;;;;20.97;100.00;100003.22;3057088;19;1849;-50
2022/07/02 03:58:02;;;;;;;;;;;;;;;20.88;100.00;100010.53;3057198;19;936;-51
2022/07/02 03:59:04;;;;;;;;;;;;;;;20.79;100.00;100025.94;3056977;19;957;-51
2022/07/02 04:00:09;;;;;;;;;;;;;;;20.75;100.00;100031.91;3056902;19;1086;-50
2022/07/02 04:01:13;;;;;;;;;;;;;;;20.70;100.00;100026.97;3057114;19;912;-50
2022/07/02 04:02:19;;;;;;;;;;;;;;;20.65;100.00;100037.47;3056827;19;1036;-49
2022/07/02 04:03:20;;;;;;;;;;;;;;;20.64;100.00;100043.09;3056895;19;885;-50
2022/07/02 04:04:25;;;;;;;;;;;;;;;20.62;100.00;100037.00;3056537;19;981;-50
2022/07/02 04:05:27;;;;;;;;;;;;;;;20.56;100.00;100040.38;3056077;19;1137;-50
2022/07/02 04:06:31;;;;;;;;;;;;;;;20.57;100.00;100039.34;3055970;19;1051;-50
2022/07/02 04:07:33;;;;;;;;;;;;;;;20.57;100.00;100023.09;3056409;19;1020;-50
2022/07/02 04:08:38;;;;;;;;;;;;;;;20.54;100.00;100028.84;3057163;19;1000;-50
2022/07/02 04:09:40;;;;;;;;;;;;;;;20.53;100.00;100027.19;3056861;19;1039;-50
2022/07/02 04:10:44;;;;;;;;;;;;;;;20.57;100.00;100033.94;3056983;19;983;-50
2022/07/02 04:11:46;;;;;;;;;;;;;;;20.60;100.00;100039.88;3056650;19;1016;-51
2022/07/02 04:12:50;;;;;;;;;;;;;;;20.63;100.00;100041.41;3056992;19;972;-50
2022/07/02 04:13:52;;;;;;;;;;;;;;;20.64;100.00;100043.09;3056822;19;1330;-50
2022/07/02 04:14:57;;;;;;;;;;;;;;;20.64;100.00;100043.94;3056882;19;920;-50
2022/07/02 04:15:59;;;;;;;;;;;;;;;20.64;100.00;100051.25;3056713;19;1005;-50
2022/07/02 04:17:03;;;;;;;;;;;;;;;20.63;100.00;100044.97;3056784;19;1031;-50
2022/07/02 04:18:05;;;;;;;;;;;;;;;20.64;100.00;100052.09;3055950;19;1905;-50
2022/07/02 04:19:09;;;;;;;;;;;;;;;20.65;100.00;100048.31;3056856;19;997;-50
2022/07/02 04:20:17;;;;;;;;;;;;;;;20.68;100.00;100025.44;3057006;19;877;-50
2022/07/02 04:21:19;;;;;;;;;;;;;;;20.67;100.00;100015.63;3056669;19;941;-50
2022/07/02 04:22:24;;;;;;;;;;;;;;;20.67;100.00;100023.75;3056654;19;977;-50
2022/07/02 04:23:26;;;;;;;;;;;;;;;20.69;100.00;100017.16;3056889;19;881;-50
2022/07/02 04:24:31;;;;;;;;;;;;;;;20.58;100.00;100019.38;3056948;19;964;-50
2022/07/02 04:25:33;;;;;;;;;;;;;;;20.66;100.00;100011.22;3056995;19;924;-50
2022/07/02 04:26:37;;;;;;;;;;;;;;;20.71;100.00;100011.56;3056586;19;1702;-50
2022/07/02 04:27:39;;;;;;;;;;;;;;;20.79;100.00;100016.97;3056886;19;990;-50
2022/07/02 04:28:43;;;;;;;;;;;;;;;20.83;100.00;100018.31;3055844;19;1682;-50
2022/07/02 04:29:45;;;;;;;;;;;;;;;20.83;100.00;100024.59;3056573;19;961;-50
2022/07/02 04:30:50;;;;;;;;;;;;;;;20.92;100.00;100020.00;3056650;19;917;-49
2022/07/02 04:31:52;;;;;;;;;;;;;;;20.89;100.00;100023.06;3056723;19;857;-50
2022/07/02 04:32:56;;;;;;;;;;;;;;;20.91;100.00;100021.00;3054789;19;988;-50
2022/07/02 04:33:58;;;;;;;;;;;;;;;20.96;100.00;100015.09;3056618;19;944;-50
2022/07/02 04:35:03;;;;;;;;;;;;;;;20.95;100.00;100033.22;3056609;19;846;-50
2022/07/02 04:36:05;;;;;;;;;;;;;;;20.98;100.00;100032.88;3056210;19;1040;-50
2022/07/02 04:37:09;;;;;;;;;;;;;;;20.96;100.00;100040.34;3056072;19;1004;-50
2022/07/02 04:38:11;;;;;;;;;;;;;;;20.91;100.00;100037.28;3056666;19;2385;-50
2022/07/02 04:39:15;;;;;;;;;;;;;;;20.88;100.00;100045.78;3056195;19;1864;-50
2022/07/02 04:40:17;;;;;;;;;;;;;;;20.81;100.00;100048.31;3056367;19;1183;-51
2022/07/02 04:41:22;;;;;;;;;;;;;;;20.79;100.00;100050.34;3056540;19;983;-49
2022/07/02 04:42:26;;;;;;;;;;;;;;;20.75;100.00;100059.03;3056538;19;841;-50
2022/07/02 04:43:28;;;;;;;;;;;;;;;20.77;100.00;100054.28;3056524;19;896;-50
2022/07/02 04:44:32;;;;;;;;;;;;;;;20.69;100.00;100055.13;3055673;19;1031;-50
2022/07/02 04:45:41;;;;;;;;;;;;;;;20.62;100.00;100058.69;3056128;19;941;-50
2022/07/02 04:46:46;;;;;;;;;;;;;;;20.59;100.00;100075.28;3056739;19;1340;-50
2022/07/02 04:47:48;;;;;;;;;;;;;;;20.53;100.00;100059.72;3056244;19;937;-50
2022/07/02 04:48:52;;;;;;;;;;;;;;;20.48;100.00;100063.75;3056724;19;881;-51
2022/07/02 04:49:54;;;;;;;;;;;;;;;20.53;100.00;100070.56;3056320;19;944;-50
2022/07/02 04:50:59;;;;;;;;;;;;;;;20.54;100.00;100072.22;3056101;19;1755;-50
2022/07/02 04:52:01;;;;;;;;;;;;;;;20.52;100.00;100068.84;3056218;19;972;-51
2022/07/02 04:53:05;;;;;;;;;;;;;;;20.50;100.00;100077.16;3056537;19;968;-50
2022/07/02 04:54:07;;;;;;;;;;;;;;;20.42;100.00;100077.97;3056263;19;953;-51
2022/07/02 04:55:11;;;;;;;;;;;;;;;20.40;100.00;100080.03;3056708;19;861;-50
2022/07/02 04:56:13;;;;;;;;;;;;;;;20.38;100.00;100089.34;3056198;19;1024;-50
2022/07/02 04:57:18;;;;;;;;;;;;;;;20.36;100.00;100086.78;3056470;19;897;-51
2022/07/02 04:58:19;;;;;;;;;;;;;;;20.39;100.00;100091.88;3055567;19;1846;-50
2022/07/02 04:59:24;;;;;;;;;;;;;;;20.38;100.00;100090.19;3056500;19;873;-50
2022/07/02 05:00:29;;;;;;;;;;;;;;;20.38;100.00;100094.75;3055871;19;1047;-50
2022/07/02 05:01:34;;;;;;;;;;;;;;;20.39;100.00;100091.88;3056373;19;945;-50
2022/07/02 05:02:36;;;;;;;;;;;;;;;20.41;100.00;100099.81;3055897;19;1028;-50
2022/07/02 05:03:40;;;;;;;;;;;;;;;20.45;100.00;100093.91;3056242;19;983;-50
2022/07/02 05:04:42;;;;;;;;;;;;;;;20.47;100.00;100105.44;3055636;19;1052;-50
2022/07/02 05:05:48;;;;;;;;;;;;;;;20.47;100.00;100102.72;3056263;19;1174;-49
2022/07/02 05:06:49;;;;;;;;;;;;;;;20.44;100.00;100111.19;3056049;19;892;-49
2022/07/02 05:07:54;;;;;;;;;;;;;;;20.42;100.00;100115.06;3055930;19;854;-50
2022/07/02 05:08:56;;;;;;;;;;;;;;;20.40;100.00;100107.13;3056228;19;957;-49
2022/07/02 05:10:00;;;;;;;;;;;;;;;20.35;100.00;100101.34;3056210;19;1099;-50
2022/07/02 05:11:02;;;;;;;;;;;;;;;20.35;100.00;100108.59;3055992;19;897;-50
2022/07/02 05:12:07;;;;;;;;;;;;;;;20.34;100.00;100105.03;3055367;19;964;-50
2022/07/02 05:13:09;;;;;;;;;;;;;;;20.40;100.00;100109.84;3055335;19;959;-49
2022/07/02 05:14:19;;;;;;;;;;;;;;;20.45;100.00;100112.88;3055830;19;993;-50
2022/07/02 05:15:21;;;;;;;;;;;;;;;20.51;100.00;100118.66;3056033;19;984;-50
2022/07/02 05:16:25;;;;;;;;;;;;;;;20.49;100.00;100119.69;3055957;19;965;-50
2022/07/02 05:17:27;;;;;;;;;;;;;;;20.55;100.00;100114.59;3056216;19;1218;-50
2022/07/02 05:18:31;;;;;;;;;;;;;;;20.62;100.00;100123.75;3055596;19;1861;-50
2022/07/02 05:19:36;;;;;;;;;;;;;;;20.69;100.00;100120.19;3055518;19;905;-50
2022/07/02 05:20:38;;;;;;;;;;;;;;;20.76;100.00;100114.97;3055918;19;889;-50
2022/07/02 05:21:43;;;;;;;;;;;;;;;20.82;100.00;100125.13;3056079;19;917;-50
2022/07/02 05:22:45;;;;;;;;;;;;;;;20.72;100.00;100122.59;3055609;19;1662;-49
2022/07/02 05:23:50;;;;;;;;;;;;;;;20.84;100.00;100129.38;3056278;19;934;-50
2022/07/02 05:24:51;;;;;;;;;;;;;;;20.82;100.00;100119.69;3055704;19;993;-50
2022/07/02 05:25:56;;;;;;;;;;;;;;;20.84;100.00;100120.38;3056018;19;882;-50
2022/07/02 05:26:58;;;;;;;;;;;;;;;20.71;100.00;100120.03;3055776;19;929;-50
2022/07/02 05:28:02;;;;;;;;;;;;;;;20.69;100.00;100114.78;3056070;19;972;-50
2022/07/02 05:29:04;;;;;;;;;;;;;;;20.61;100.00;100131.03;3054985;19;1166;-49
2022/07/02 05:30:09;;;;;;;;;;;;;;;20.57;100.00;100123.41;3055883;19;972;-50
2022/07/02 05:31:11;;;;;;;;;;;;;;;20.51;100.00;100129.50;3055688;19;949;-50
2022/07/02 05:32:15;;;;;;;;;;;;;;;20.34;100.00;100126.72;3055920;19;965;-50
2022/07/02 05:33:17;;;;;;;;;;;;;;;20.43;100.00;100125.75;3055830;19;913;-49
2022/07/02 05:34:22;;;;;;;;;;;;;;;20.45;100.00;100133.72;3055788;19;913;-50